Spanish Flat, California
Current Conditions -  °F | °C
As of 11:54 AM on Friday 21 Nov 2014 (Local Time) from KAPC Reporting Station
Overcast Overcast  
Wind Chill: 56°   Ceiling: 1500
Heat Index: 56°   Visibility: 10mi
Dew Point: 52°   Wind: 3mph
Humidity: 87%   Direction: 230°SW
Pressure: 30.1"   Gusts: NA
Location:  38.3929°N, 122.291°W
Report Text: KAPC 211954Z AUTO 23003KT 10SM OVC015 13/11 A3010 RMK AO2 SLP185 T01330111
Loading
Personal Weather Stations






























Interactive Weather Map New forecast layout! Learn more

10-Day Weather Forecast

Advertisements
Track Severe Weather on mobile